Home > Products > Valid Products > TAF

000
FTUS46 KEKA 261038 AAA
TAFUKI
TAF AMD
KUKI 261038Z 2611/2706 00000KT 6SM BR FEW003
     FM261630 VRB03KT P6SM FEW090
     FM262100 31008G14KT P6SM SKC
     FM270100 VRB03KT P6SM SKC=



000
FTUS46 KEKA 260525
TAFCEC
TAF
KCEC 260525Z 2606/2706 VRB03KT P6SM OVC070
     FM261700 29008KT P6SM SCT250=



000
FTUS46 KEKA 260525
TAFUKI
TAF
KUKI 260525Z 2606/2706 36004KT P6SM SCT150
     FM261100 00000KT 3SM BR OVC003
     FM261630 VRB03KT P6SM FEW090
     FM262100 31008G14KT P6SM SKC
     FM270100 VRB03KT P6SM SKC=



000
FTUS46 KEKA 260525
TAFACV
TAF
KACV 260525Z 2606/2706 VRB03KT 6SM BR SCT030 OVC100
     FM261700 31010KT P6SM SCT250=



000
FTUS46 KEKA 260406 AAA
TAFCEC
TAF AMD
KCEC 260406Z 2604/2624 00000KT 5SM HZ OVC110
     FM260700 VRB03KT P6SM OVC070
     FM261700 26008KT P6SM FEW060 SCT250=



000
FTUS46 KEKA 260331 AAA
TAFUKI
TAF AMD
KUKI 260331Z 2604/2624 36004KT P6SM SCT150
     FM261100 00000KT 3SM BR OVC003
     FM261630 VRB03KT P6SM FEW090
     FM262100 31008G14KT P6SM SKC=



000
FTUS46 KEKA 252343
TAFCEC
TAF
KCEC 252343Z 2600/2624 32009KT P6SM OVC150
     FM260400 34003KT P6SM SCT040 OVC120
     FM260800 VRB03KT P6SM OVC070
     FM261700 26008KT P6SM FEW060 SCT250=



000
FTUS46 KEKA 252343
TAFUKI
TAF
KUKI 252343Z 2600/2624 31011G18KT P6SM SCT050 SCT160
     FM260500 34004KT P6SM SCT150
     FM261100 00000KT 3SM BR OVC003
     FM261630 VRB03KT P6SM FEW090
     FM262100 31008G14KT P6SM SKC=



000
FTUS46 KEKA 252343
TAFACV
TAF
KACV 252343Z 2600/2624 31009KT P6SM OVC150
     FM260600 VRB03KT 6SM BR SCT030 OVC100
     FM261700 30010KT P6SM FEW050 SCT250=



000
FTUS46 KEKA 251736
TAFACV
TAF
KACV 251736Z 2518/2618 31011KT P6SM SCT025 SCT050 BKN250
     FM260200 33007KT P6SM SCT040 BKN120
     FM260600 VRB03KT 6SM BR SCT030 SCT120
     FM261600 30007KT P6SM SCT250=



000
FTUS46 KEKA 251736
TAFUKI
TAF
KUKI 251736Z 2518/2618 33007KT P6SM SCT025 SCT050 BKN250
     FM252000 31011G18KT P6SM SCT050 BKN250
     FM260500 34004KT P6SM SCT150
     FM261200 VRB03KT 6SM BR SKC=



000
FTUS46 KEKA 251736
TAFCEC
TAF
KCEC 251736Z 2518/2618 32009KT 6SM HZ FEW020 SCT050 BKN250
     FM260400 34003KT P6SM SCT040 BKN120
     FM260800 VRB03KT 6SM BR BKN100
     FM261200 13007KT P6SM BKN100
     FM261700 26008KT P6SM SCT250=



000
FTUS46 KEKA 251736
TAFCEC
TAF
KCEC 251736Z 2518/2618 32009KT 6SM HZ FEW020 SCT050 BKN250
     FM260400 34003KT P6SM SCT040 BKN120
     FM260800 VRB03KT 6SM BR BKN100
     FM261200 13007KT P6SM BKN100
     FM261700 26008KT P6SM SCT250=



000
FTUS46 KEKA 251415 AAA
TAFACV
TAF AMD
KACV 251415Z 2514/2612 VRB04KT P6SM SCT020 BKN050 BKN250
      TEMPO 2514/2516 BKN020 BKN050 OVC250
     FM251800 31011KT P6SM SCT025 BKN200
     FM260100 33007KT P6SM SCT040 BKN120
     FM260600 VRB03KT 6SM BR SCT030=



000
FTUS46 KEKA 251404 AAB
TAFUKI
TAF AMD
KUKI 251404Z 2514/2612 33007KT P6SM SCT030 BKN050 OVC250
     FM251900 32011G18KT P6SM SCT050 BKN250
     FM260600 34004KT P6SM SCT150=



000
FTUS46 KEKA 251404 AAB
TAFUKI
TAF AMD
KUKI 251404Z 2514/2612 33007KT P6SM SCT030 BKN050 OVC250
     FM251900 32011G18KT P6SM SCT050 BKN250
     FM260600 34004KT P6SM SCT150=



000
FTUS46 KEKA 251316 AAA
TAFCEC
TAF AMD
KCEC 251316Z 2513/2612 05003KT 6SM BR BKN045 BKN250
     FM251600 32008KT P6SM SCT020 SCT050 BKN250
     FM260400 VRB03KT P6SM SCT040 BKN120
     FM260800 VRB03KT 6SM BR BKN100=



000
FTUS46 KEKA 251316 AAA
TAFCEC
TAF AMD
KCEC 251316Z 2513/2612 05003KT 6SM BR BKN045 BKN250
     FM251600 32008KT P6SM SCT020 SCT050 BKN250
     FM260400 VRB03KT P6SM SCT040 BKN120
     FM260800 VRB03KT 6SM BR BKN100=



000
FTUS46 KEKA 251315 CCB
TAFUKI
TAF COR
KUKI 251315Z 2513/2612 31005KT P6SM SCT005 BKN020 OVC200
      TEMPO 2513/2515 BKN005 OVC020
     FM251500 34007KT P6SM SCT030 BKN050 OVC250
     FM251900 32011G18KT P6SM SCT050 BKN250
     FM260600 34004KT P6SM SCT150=



000
FTUS46 KEKA 251315 CCB
TAFUKI
TAF COR
KUKI 251315Z 2513/2612 31005KT P6SM SCT005 BKN020 OVC200
      TEMPO 2513/2515 BKN005 OVC020
     FM251500 34007KT P6SM SCT030 BKN050 OVC250
     FM251900 32011G18KT P6SM SCT050 BKN250
     FM260600 34004KT P6SM SCT150=



000
FTUS46 KEKA 251314 AAA
TAFUKI
TAF AMD
KUKI 251314Z 2513/2612 31005KT P6SM SCT005 BKN025 OVC200
      TEMPO 2513/2515 BKN005 OVC025
     FM251500 34007KT P6SM SCT030 BKN050 OVC250
     FM251900 32011G18KT P6SM SCT050 BKN250
     FM260600 34004KT P6SM SCT150=



000
FTUS46 KEKA 251314 AAA
TAFUKI
TAF AMD
KUKI 251314Z 2513/2612 31005KT P6SM SCT005 BKN025 OVC200
      TEMPO 2513/2515 BKN005 OVC025
     FM251500 34007KT P6SM SCT030 BKN050 OVC250
     FM251900 32011G18KT P6SM SCT050 BKN250
     FM260600 34004KT P6SM SCT150=



000
FTUS46 KEKA 251137 CCA
TAFUKI
TAF COR
KUKI 251137Z 2512/2612 00000KT P6SM BKN007 BKN015 OVC200
      TEMPO 2512/2514 SCT007 BKN015 BKN200
     FM251400 35005KT P6SM SCT015 BKN040 OVC250
     FM251900 32011G18KT P6SM SCT050 BKN250
     FM260600 34004KT P6SM SCT150=



000
FTUS46 KEKA 251136
TAFUKI
TAF
KUKI 251136Z 2512/2612 00000KT P6SM SCT007 BKN015 OVC200
     FM251400 35005KT P6SM SCT015 BKN040 OVC250
     FM251900 32011G18KT P6SM SCT050 BKN250
     FM260600 34004KT P6SM SCT150=



000
FTUS46 KEKA 251136
TAFACV
TAF
KACV 251136Z 2512/2612 00000KT P6SM SCT015 BKN040 BKN250
      TEMPO 2512/2514 P6SM BKN015 OVC040
     FM251800 31011KT P6SM SCT020 BKN200
     FM260100 33007KT P6SM SCT040 BKN120
     FM260600 VRB03KT 6SM BR SCT030=



000
FTUS46 KEKA 251136
TAFCEC
TAF
KCEC 251136Z 2512/2612 05003KT 3SM BR BKN040 BKN250
     FM251600 32008KT P6SM SCT020 SCT050 BKN250
     FM260400 VRB03KT P6SM SCT040 BKN120
     FM260800 VRB03KT 6SM BR BKN100=



000
FTUS46 KEKA 250829 AAA
TAFUKI
TAF AMD
KUKI 250829Z 2508/2606 00000KT 6SM BR VCSH FEW007 BKN025 OVC050
      TEMPO 2510/2512 SCT025 BKN050
     FM251200 34005KT P6SM BKN030 OVC050
     FM251800 31009G15KT P6SM SCT050 BKN100 OVC250=



000
FTUS46 KEKA 250603 CCA
TAFUKI
TAF COR
KUKI 250603Z 2506/2606 VRB04KT 6SM -RA BR FEW007 BKN012 OVC020
      TEMPO 2508/2512 6SM -RA SCT012 SCT020 OVC050
     FM251200 34005KT P6SM VCSH BKN030 OVC050
     FM252100 30009KT P6SM SCT050 BKN100 OVC250=



000
FTUS46 KEKA 250603 CCA
TAFUKI
TAF COR
KUKI 250603Z 2506/2606 VRB04KT 6SM -RA BR FEW007 BKN012 OVC020
      TEMPO 2508/2512 6SM -RA SCT012 SCT020 OVC050
     FM251200 34005KT P6SM VCSH BKN030 OVC050
     FM252100 30009KT P6SM SCT050 BKN100 OVC250=



000
FTUS46 KEKA 250538
TAFCEC
TAF
KCEC 250538Z 2506/2606 VRB03KT P6SM VCSH SCT050 BKN090 OVC200
      TEMPO 2506/2508 1SM BR
     FM250800 VRB03KT P6SM BKN050 OVC090
      TEMPO 2508/2512 6SM -RA BR BKN035 OVC050
     FM251200 06003KT P6SM VCSH SCT035 BKN050 BKN250
     FM251800 29009KT P6SM SCT050 BKN100 BKN250=



000
FTUS46 KEKA 250538
TAFACV
TAF
KACV 250538Z 2506/2606 VRB05KT P6SM -RA SCT020 OVC035
      TEMPO 2508/2512 6SM -RA BR BKN030 OVC050
     FM251200 VRB03KT P6SM VCSH SCT025 BKN050
      TEMPO 2512/2514 P6SM -RA OVC025
     FM251800 32007KT P6SM SCT050 SCT250=



000
FTUS46 KEKA 250538
TAFUKI
TAF
KUKI 250538Z 2506/2606 VRB04KT 6SM -RA BR FEW007 BKN012 OVC020
      TEMPO 2508/2512 6SM -RA SCT012 BKN020 OVC050
     FM251200 34005KT P6SM VCSH BKN030 OVC050
     FM252100 30009KT P6SM SCT050 BKN100 OVC250=



000
FTUS46 KEKA 250538
TAFUKI
TAF
KUKI 250538Z 2506/2606 VRB04KT 6SM -RA BR FEW007 BKN012 OVC020
      TEMPO 2508/2512 6SM -RA SCT012 BKN020 OVC050
     FM251200 34005KT P6SM VCSH BKN030 OVC050
     FM252100 30009KT P6SM SCT050 BKN100 OVC250=



000
FTUS46 KEKA 250538
TAFCEC
TAF
KCEC 250538Z 2506/2606 VRB03KT P6SM VCSH SCT050 BKN090 OVC200
      TEMPO 2506/2508 1SM BR
     FM250800 VRB03KT P6SM BKN050 OVC090
      TEMPO 2508/2512 6SM -RA BR BKN035 OVC050
     FM251200 06003KT P6SM VCSH SCT035 BKN050 BKN250
     FM251800 29009KT P6SM SCT050 BKN100 BKN250=



000
FTUS46 KEKA 250538
TAFACV
TAF
KACV 250538Z 2506/2606 VRB05KT P6SM -RA SCT020 OVC035
      TEMPO 2508/2512 6SM -RA BR BKN030 OVC050
     FM251200 VRB03KT P6SM VCSH SCT025 BKN050
      TEMPO 2512/2514 P6SM -RA OVC025
     FM251800 32007KT P6SM SCT050 SCT250=



000
FTUS46 KEKA 250427 AAB
TAFUKI
TAF AMD
KUKI 250427Z 2504/2524 VRB04KT 6SM -RA BR FEW007 SCT015 OVC020
      TEMPO 2504/2508 6SM -SHRA SCT012 BKN020
     FM251000 34005KT P6SM VCSH BKN030 OVC050
     FM252100 30009KT P6SM SCT050 BKN250=



000
FTUS46 KEKA 250416 AAA
TAFACV
TAF AMD
KACV 250416Z 2504/2524 VRB05KT P6SM -RA SCT020 OVC035
      TEMPO 2506/2510 6SM -RA BR BKN030 OVC050
     FM251200 VRB03KT P6SM VCSH SCT025 BKN050
     FM251800 32007KT P6SM SCT050 SCT250=



000
FTUS46 KEKA 250228 AAA
TAFUKI
TAF AMD
KUKI 250228Z 2502/2524 08005KT 6SM -RA BR BKN025 OVC035
      TEMPO 2502/2504 4SM -RA BR OVC020
     FM250400 32005KT P6SM -RA SCT020 OVC050
      TEMPO 2504/2506 6SM -SHRA BKN020
     FM250800 34005KT P6SM VCSH BKN050=



000
FTUS46 KEKA 250228 AAA
TAFUKI
TAF AMD
KUKI 250228Z 2502/2524 08005KT 6SM -RA BR BKN025 OVC035
      TEMPO 2502/2504 4SM -RA BR OVC020
     FM250400 32005KT P6SM -RA SCT020 OVC050
      TEMPO 2504/2506 6SM -SHRA BKN020
     FM250800 34005KT P6SM VCSH BKN050=



000
FTUS46 KEKA 242340
TAFACV
TAF
KACV 242340Z 2500/2524 26009KT P6SM VCSH FEW020 SCT050 OVC090
     FM250100 25008KT P6SM -RA SCT020 BKN050 BKN090
     FM250300 VRB04KT 6SM -RA BR SCT020 OVC050
      TEMPO 2503/2507 6SM -RA BR BKN020 OVC050
     FM251200 VRB03KT P6SM VCSH SCT025 BKN050=



000
FTUS46 KEKA 242340
TAFCEC
TAF
KCEC 242340Z 2500/2524 17009KT P6SM VCSH SCT050 BKN090 OVC200
     FM250300 17005KT P6SM SCT035 BKN050 OVC090
      TEMPO 2503/2506 6SM -RA BR SCT025 OVC035
     FM250600 16003KT 4SM -RA BR SCT009 BKN015 BKN025
     FM250900 VRB03KT 6SM -SHRA FEW015 SCT025 BKN035=



000
FTUS46 KEKA 242340
TAFUKI
TAF
KUKI 242340Z 2500/2524 31009KT P6SM -RA SCT050 BKN080 OVC200
      TEMPO 2500/2504 33010G15KT 6SM -SHRA BKN050 OVC080
     FM250400 34009KT P6SM -SHRA SCT030 OVC060
     FM250800 34005KT P6SM VCSH BKN050=



000
FTUS46 KEKA 242202 CCA
TAFUKI
TAF COR
KUKI 242202Z 2418/2518 32010G15KT P6SM SCT250
     FM250300 34010KT P6SM VCSH OVC060
     FM250800 34005KT P6SM BKN050=



000
FTUS46 KEKA 242202 CCA
TAFUKI
TAF COR
KUKI 242202Z 2418/2518 32010G15KT P6SM SCT250
     FM250300 34010KT P6SM VCSH OVC060
     FM250800 34005KT P6SM BKN050=



000
FTUS46 KEKA 241726
TAFUKI
TAF
KUKI 241726Z 2418/2518 31010G18KT P6SM SCT250
     FM250300 34010KT P6SM VCSH OVC060
     FM250800 34005KT P6SM BKN050=



000
FTUS46 KEKA 241726
TAFACV
TAF
KACV 241726Z 2418/2518 VRB06KT P6SM BKN060 OVC250
     FM241900 28008KT P6SM BKN060 OVC100
     FM250300 VRB03KT 6SM -RA BKN020 OVC050
     FM250500 00000KT 4SM -RA BR SCT005 BKN020 OVC035
     FM251200 VRB03KT P6SM OVC025=



000
FTUS46 KEKA 241726
TAFCEC
TAF
KCEC 241726Z 2418/2518 20008KT P6SM BKN060
     FM242100 20006KT P6SM BKN050
     FM250100 17003KT P6SM -DZ BKN035 OVC050
     FM250500 VRB03KT 4SM -RA BR SCT005 BKN040 OVC150
     FM251200 VRB04KT P6SM OVC050=



000
FTUS46 KEKA 241601 CCB
TAFACV
TAF COR
KACV 241601Z 2415/2512 VRB05KT P6SM BKN050 OVC250
      TEMPO 2416/2418 BKN005
     FM241800 28007KT P6SM SCT015 BKN030 OVC100
     FM250300 VRB03KT 6SM -RA BKN020 OVC050
     FM250500 00000KT 4SM -RA BR SCT005 BKN040 OVC150=



000
FTUS46 KEKA 241532 CCA
TAFACV
TAF COR
KACV 241532Z 2415/2512 VRB05KT P6SM BKN050 OVC250
      TEMPO 2415/2416 BKN004
     FM241800 28007KT P6SM SCT015 BKN030 OVC100
     FM250300 VRB03KT 6SM -RA BKN020 OVC050
     FM250500 00000KT 4SM -RA BR SCT005 BKN040 OVC150=



000
FTUS46 KEKA 241507 AAB
TAFACV
TAF AMD
KACV 241507Z 2415/2512 VRB03KT P6SM BKN050 OVC250
      TEMPO 2415/2416 4SM BR BKN005
     FM241800 28007KT P6SM SCT015 BKN030 OVC100
     FM250300 VRB03KT 6SM -RA BKN020 OVC050
     FM250500 00000KT 4SM -RA BR SCT005 BKN040 OVC150=



000
FTUS46 KEKA 241435 AAB
TAFCEC
TAF AMD
KCEC 241435Z 2415/2512 11005KT P6SM SCT002 OVC060
     FM241600 VRB06KT P6SM OVC060
     FM241800 20007KT P6SM SCT015 BKN030 OVC100
     FM250200 17003KT 6SM -RA BKN020 OVC050
     FM250500 16003KT 4SM -RA BR SCT005 BKN040 OVC150=



000
FTUS46 KEKA 241435 AAB
TAFCEC
TAF AMD
KCEC 241435Z 2415/2512 11005KT P6SM SCT002 OVC060
     FM241600 VRB06KT P6SM OVC060
     FM241800 20007KT P6SM SCT015 BKN030 OVC100
     FM250200 17003KT 6SM -RA BKN020 OVC050
     FM250500 16003KT 4SM -RA BR SCT005 BKN040 OVC150=



000
FTUS46 KEKA 241331 AAA
TAFCEC
TAF AMD
KCEC 241331Z 2414/2512 11005KT 4SM BR SCT002 OVC060
      TEMPO 2414/2415 2SM BR BKN002
     FM241500 VRB04KT 4SM BR BKN005 OVC050
     FM241800 20007KT P6SM SCT015 BKN030 OVC100
     FM250200 17003KT 6SM -RA BKN020 OVC050
     FM250500 16003KT 4SM -RA BR SCT005 BKN040 OVC150=



000
FTUS46 KEKA 241328 AAA
TAFACV
TAF AMD
KACV 241328Z 2413/2512 VRB03KT 6SM BR SCT002 BKN050 OVC250
      TEMPO 2413/2415 4SM BR
     FM241800 28007KT P6SM SCT015 BKN030 OVC100
     FM250300 VRB03KT 6SM -RA BKN020 OVC050
     FM250500 00000KT 4SM -RA BR SCT005 BKN040 OVC150=



000
FTUS46 KEKA 241328 AAA
TAFACV
TAF AMD
KACV 241328Z 2413/2512 VRB03KT 6SM BR SCT002 BKN050 OVC250
      TEMPO 2413/2415 4SM BR
     FM241800 28007KT P6SM SCT015 BKN030 OVC100
     FM250300 VRB03KT 6SM -RA BKN020 OVC050
     FM250500 00000KT 4SM -RA BR SCT005 BKN040 OVC150=



000
FTUS46 KEKA 241154
TAFUKI
TAF
KUKI 241154Z 2412/2512 36004KT P6SM FEW012 SCT045 BKN250
     FM241900 31011G18KT P6SM SCT030 BKN080 BKN250
     FM250300 34010KT P6SM VCSH BKN025 OVC060=



000
FTUS46 KEKA 241154
TAFCEC
TAF
KCEC 241154Z 2412/2512 08004KT 1/4SM FG OVC006
      TEMPO 2412/2414 1SM BR SCT006 OVC050
     FM241400 15004KT 1SM BR OVC008
      TEMPO 2416/2418 4SM BR BKN012
     FM241800 20007KT P6SM SCT015 BKN030 OVC100
     FM250200 17003KT 6SM -RA BKN020 OVC050
     FM250500 16003KT 4SM -RA BR SCT005 BKN040 OVC150=



000
FTUS46 KEKA 241154
TAFACV
TAF
KACV 241154Z 2412/2512 11003KT 1SM BR BKN002
     FM241500 11004KT 4SM BR OVC008
      TEMPO 2415/2417 2SM BR BKN012
     FM241800 28007KT P6SM SCT015 BKN030 OVC100
     FM250300 VRB03KT 6SM -RA BKN020 OVC050
     FM250500 00000KT 4SM -RA BR SCT005 BKN040 OVC150=



000
FTUS46 KEKA 241154
TAFACV
TAF
KACV 241154Z 2412/2512 11003KT 1SM BR BKN002
     FM241500 11004KT 4SM BR OVC008
      TEMPO 2415/2417 2SM BR BKN012
     FM241800 28007KT P6SM SCT015 BKN030 OVC100
     FM250300 VRB03KT 6SM -RA BKN020 OVC050
     FM250500 00000KT 4SM -RA BR SCT005 BKN040 OVC150=



000
FTUS46 KEKA 241154
TAFUKI
TAF
KUKI 241154Z 2412/2512 36004KT P6SM FEW012 SCT045 BKN250
     FM241900 31011G18KT P6SM SCT030 BKN080 BKN250
     FM250300 34010KT P6SM VCSH BKN025 OVC060=



000
FTUS46 KEKA 241154
TAFCEC
TAF
KCEC 241154Z 2412/2512 08004KT 1/4SM FG OVC006
      TEMPO 2412/2414 1SM BR SCT006 OVC050
     FM241400 15004KT 1SM BR OVC008
      TEMPO 2416/2418 4SM BR BKN012
     FM241800 20007KT P6SM SCT015 BKN030 OVC100
     FM250200 17003KT 6SM -RA BKN020 OVC050
     FM250500 16003KT 4SM -RA BR SCT005 BKN040 OVC150=



000
FTUS46 KEKA 240607 CCA
TAFUKI
TAF COR
KUKI 240607Z 2406/2506 01009KT P6SM SCT030 BKN250
      TEMPO 2406/2408 35010G16KT
     FM241800 31011G16KT P6SM SCT030 BKN150 OVC250
     FM250300 24005KT P6SM VCSH BKN025 OVC100=



000
FTUS46 KEKA 240541 CCA
TAFCEC
TAF COR
KCEC 240541Z 2406/2506 16005KT 6SM -RA BR BKN005 OVC012
      TEMPO 2408/2410 5SM -RA SCT006 BKN012 OVC025
     FM241200 15004KT P6SM VCSH BKN020 BKN050 BKN100
     FM241400 15006KT P6SM SCT020 BKN050
     FM241800 26006KT P6SM VCSH BKN050 OVC100
     FM242300 23007KT P6SM -RA BKN025 OVC050=



000
FTUS46 KEKA 240541 CCA
TAFCEC
TAF COR
KCEC 240541Z 2406/2506 16005KT 6SM -RA BR BKN005 OVC012
      TEMPO 2408/2410 5SM -RA SCT006 BKN012 OVC025
     FM241200 15004KT P6SM VCSH BKN020 BKN050 BKN100
     FM241400 15006KT P6SM SCT020 BKN050
     FM241800 26006KT P6SM VCSH BKN050 OVC100
     FM242300 23007KT P6SM -RA BKN025 OVC050=



000
FTUS46 KEKA 240540
TAFACV
TAF
KACV 240540Z 2406/2506 32003KT 3/4SM -RA BR BKN002 OVC005
      TEMPO 2407/2409 3SM BR SCT002 OVC005
     FM240900 17003KT 6SM BR SCT008 OVC012
      TEMPO 2409/2413 2SM BR BKN008
     FM241300 VRB03KT P6SM SCT012 OVC050
     FM241700 30007KT P6SM VCSH SCT025 OVC050
     FM250000 30008KT P6SM -RA BKN025 OVC050=



000
FTUS46 KEKA 240540
TAFCEC
TAF
KCEC 240540Z 2406/2506 16005KT 6SM -RA BR BKN006 OVC012
      TEMPO 2408/2410 5SM -RA SCT006 BKN012 OVC025
     FM241200 15004KT P6SM VCSH BKN020 BKN050 BKN100
     FM241400 15006KT P6SM SCT020 BKN050
     FM241800 26006KT P6SM VCSH BKN050 OVC100
     FM242300 23007KT P6SM -RA BKN025 OVC050=



000
FTUS46 KEKA 240540
TAFUKI
TAF
KUKI 240540Z 2406/2506 01009KT P6SM SCT030 BKN250
     FM241800 31011G16KT P6SM SCT030 BKN150 OVC250
     FM250300 24005KT P6SM VCSH BKN025 OVC100=



000
FTUS46 KEKA 240458 AAD
TAFCEC
TAF AMD
KCEC 240458Z 2405/2424 16005KT 6SM -RA BR BKN006 OVC010
      TEMPO 2406/2408 4SM -RA SCT006 OVC010
     FM240800 18004KT P6SM VCSH BKN020 BKN050
     FM241300 15006KT P6SM SCT020 BKN050
     FM241600 26006KT P6SM BKN050 OVC100=



000
FTUS46 KEKA 240458 AAD
TAFCEC
TAF AMD
KCEC 240458Z 2405/2424 16005KT 6SM -RA BR BKN006 OVC010
      TEMPO 2406/2408 4SM -RA SCT006 OVC010
     FM240800 18004KT P6SM VCSH BKN020 BKN050
     FM241300 15006KT P6SM SCT020 BKN050
     FM241600 26006KT P6SM BKN050 OVC100=



000
FTUS46 KEKA 240455 AAC
TAFACV
TAF AMD
KACV 240455Z 2405/2424 27004KT 2SM -RA BR BKN005 OVC011
      TEMPO 2405/2407 3SM BR SCT005 OVC011
     FM240700 17003KT 5SM -RA BR SCT009 OVC020
     FM241600 30006KT P6SM BKN050 OVC100=



000
FTUS46 KEKA 240455 AAC
TAFACV
TAF AMD
KACV 240455Z 2405/2424 27004KT 2SM -RA BR BKN005 OVC011
      TEMPO 2405/2407 3SM BR SCT005 OVC011
     FM240700 17003KT 5SM -RA BR SCT009 OVC020
     FM241600 30006KT P6SM BKN050 OVC100=



000
FTUS46 KEKA 240249 CCA
TAFACV
TAF COR
KACV 240249Z 2402/2424 VRB04KT 6SM -RA BR SCT012 BKN020 OVC040
      TEMPO 2403/2405 3SM -RA BR OVC012
     FM240500 17003KT 6SM -RA BR SCT009 OVC020
      TEMPO 2405/2407 3SM -RA BR OVC009
     FM241000 17006KT P6SM SCT020 SCT250
     FM241600 30006KT P6SM SCT040 OVC100=



000
FTUS46 KEKA 240215 AAB
TAFACV
TAF AMD
KACV 240215Z 2402/2424 VRB04KT 6SM -RA BR SCT012 BKN020 OVC040
      TEMPO 2403/2405 3SM -RA BR OVC012
     FM240500 17003KT 6SM -RA BR SCT009
      TEMPO 2405/2407 3SM -RA BR OVC009
     FM241000 17006KT P6SM SCT020 SCT250
     FM241600 30006KT P6SM SCT040 OVC100=



000
FTUS46 KEKA 240200 AAC
TAFCEC
TAF AMD
KCEC 240200Z 2402/2424 16005KT 6SM -RA BR BKN007 OVC010
      TEMPO 2403/2406 2SM RA BR BKN010 OVC025
     FM240600 18004KT P6SM VCSH BKN020 BKN050
     FM240900 15006KT P6SM SCT020 SCT250
     FM241600 26006KT P6SM BKN050 OVC100=



000
FTUS46 KEKA 240053 AAB
TAFCEC
TAF AMD
KCEC 240053Z 2401/2424 27004KT 2SM -RA BR SCT007 BKN010 OVC025
      TEMPO 2401/2405 1SM RA BR BKN007 OVC015
     FM240500 18004KT P6SM VCSH BKN020 BKN050
     FM240900 15006KT P6SM SCT020 SCT250
     FM241600 26006KT P6SM BKN050 OVC100=



000
FTUS46 KEKA 240053 AAB
TAFCEC
TAF AMD
KCEC 240053Z 2401/2424 27004KT 2SM -RA BR SCT007 BKN010 OVC025
      TEMPO 2401/2405 1SM RA BR BKN007 OVC015
     FM240500 18004KT P6SM VCSH BKN020 BKN050
     FM240900 15006KT P6SM SCT020 SCT250
     FM241600 26006KT P6SM BKN050 OVC100=



000
FTUS46 KEKA 240029 AAA
TAFACV
TAF AMD
KACV 240029Z 2400/2424 33008KT P6SM -RA FEW015 SCT020 OVC060
      TEMPO 2401/2403 6SM -RA OVC020
     FM240300 33005KT 5SM -RA BR SCT015 OVC020
     FM240800 17006KT P6SM VCSH BKN015 BKN040
     FM241000 17006KT P6SM SCT020 SCT250
     FM241600 30006KT P6SM SCT040 OVC100=



000
FTUS46 KEKA 240022 AAA
TAFCEC
TAF AMD
KCEC 240022Z 2400/2424 27004KT 2SM -RA BR SCT007 BKN010 OVC025
      TEMPO 2401/2405 1SM RA BR BKN007 OVC015
     FM240500 18004KT P6SM VCSH BKN020 BKN050
     FM240900 15006KT P6SM SCT020 SCT250
     FM241600 26006KT P6SM BKN050 OVC100=



000
FTUS46 KEKA 240022 AAA
TAFCEC
TAF AMD
KCEC 240022Z 2400/2424 27004KT 2SM -RA BR SCT007 BKN010 OVC025
      TEMPO 2401/2405 1SM RA BR BKN007 OVC015
     FM240500 18004KT P6SM VCSH BKN020 BKN050
     FM240900 15006KT P6SM SCT020 SCT250
     FM241600 26006KT P6SM BKN050 OVC100=



000
FTUS46 KEKA 232348
TAFACV
TAF
KACV 232348Z 2400/2424 33008KT 6SM -RA BR BKN015 OVC040
     FM240800 17006KT P6SM VCSH BKN015 BKN040
     FM241000 17006KT P6SM SCT020 SCT250
     FM241600 30006KT P6SM SCT040 OVC100=



000
FTUS46 KEKA 232348
TAFCEC
TAF
KCEC 232348Z 2400/2424 VRB04KT 6SM -RA BR BKN015 OVC040
     FM240600 18004KT P6SM VCSH BKN020 BKN050
     FM240900 15006KT P6SM SCT020 SCT250
     FM241600 26006KT P6SM BKN050 OVC100=



000
FTUS46 KEKA 232348
TAFUKI
TAF
KUKI 232348Z 2400/2424 31011KT P6SM SCT200
     FM240500 35004KT P6SM FEW040 OVC200
     FM240900 VRB03KT P6SM SCT030 BKN200 WS010/30025KT
     FM241700 34009G17KT P6SM BKN100=



000
FTUS46 KEKA 232348
TAFUKI
TAF
KUKI 232348Z 2400/2424 31011KT P6SM SCT200
     FM240500 35004KT P6SM FEW040 OVC200
     FM240900 VRB03KT P6SM SCT030 BKN200 WS010/30025KT
     FM241700 34009G17KT P6SM BKN100=



000
FTUS46 KEKA 232348
TAFCEC
TAF
KCEC 232348Z 2400/2424 VRB04KT 6SM -RA BR BKN015 OVC040
     FM240600 18004KT P6SM VCSH BKN020 BKN050
     FM240900 15006KT P6SM SCT020 SCT250
     FM241600 26006KT P6SM BKN050 OVC100=



000
FTUS46 KEKA 232348
TAFACV
TAF
KACV 232348Z 2400/2424 33008KT 6SM -RA BR BKN015 OVC040
     FM240800 17006KT P6SM VCSH BKN015 BKN040
     FM241000 17006KT P6SM SCT020 SCT250
     FM241600 30006KT P6SM SCT040 OVC100=



000
FTUS46 KEKA 232154 AAA
TAFCEC
TAF AMD
KCEC 232154Z 2322/2418 33007KT P6SM -RA SCT040 BKN060 OVC200
     FM232300 31008KT 6SM -RA BR BKN015 OVC040
     FM240600 34006KT P6SM VCSH BKN020 BKN050
     FM240900 15006KT P6SM SCT020 SCT250=



000
FTUS46 KEKA 232154 AAA
TAFCEC
TAF AMD
KCEC 232154Z 2322/2418 33007KT P6SM -RA SCT040 BKN060 OVC200
     FM232300 31008KT 6SM -RA BR BKN015 OVC040
     FM240600 34006KT P6SM VCSH BKN020 BKN050
     FM240900 15006KT P6SM SCT020 SCT250=



000
FTUS46 KEKA 231739
TAFCEC
TAF
KCEC 231739Z 2318/2418 34008KT P6SM BKN200
     FM232000 33010G20KT P6SM VCSH SCT040 BKN100 OVC200
     FM232300 31008KT 6SM -RA BR BKN015 OVC040
     FM240600 34006KT P6SM VCSH BKN020 BKN050
     FM240900 15006KT P6SM SCT020 SCT250=



000
FTUS46 KEKA 231739
TAFUKI
TAF
KUKI 231739Z 2318/2418 36006KT P6SM SKC
     FM232100 31011KT P6SM SCT150 BKN200
     FM240500 35008KT P6SM SCT040 OVC200
     FM240900 34006KT P6SM SCT030 BKN200 WS010/30025KT
     FM241700 34009KT P6SM BKN100=



000
FTUS46 KEKA 231739
TAFACV
TAF
KACV 231739Z 2318/2418 32008KT 6SM HZ FEW015 BKN250
     FM232000 32010G20KT P6SM VCSH SCT040 BKN100 OVC200
     FM240200 33008KT 6SM -RA BR BKN015 OVC040
     FM240800 17006KT P6SM VCSH BKN015 BKN040
     FM241000 17006KT P6SM SCT020 SCT250=



000
FTUS46 KEKA 231159
TAFACV
TAF
KACV 231159Z 2312/2412 09005KT P6SM SCT015 BKN250
      TEMPO 2312/2316 BKN015
     FM231600 32008KT P6SM SCT200 BKN250
     FM232000 32010G20KT P6SM VCSH SCT040 BKN100 OVC200
     FM240200 33008KT 6SM -RA BR BKN015 OVC040
     FM240800 17006KT P6SM VCSH BKN015 BKN040
     FM241000 17006KT P6SM SCT020 SCT250=



000
FTUS46 KEKA 231159
TAFCEC
TAF
KCEC 231159Z 2312/2412 35010KT P6SM BKN250
     FM231600 34010G20KT P6SM BKN200
     FM232000 33010G22KT P6SM VCSH SCT040 BKN100 OVC200
     FM232300 31008KT 6SM -RA BR BKN015 OVC040
     FM240600 34006KT P6SM VCSH BKN020 BKN050
     FM240900 15006KT P6SM SCT020 SCT250=



000
FTUS46 KEKA 231159
TAFUKI
TAF
KUKI 231159Z 2312/2412 00000KT P6SM FEW010
     FM231600 36006KT P6SM SCT200
     FM232100 31012G20KT P6SM SCT150 BKN200
     FM240500 35010G18KT P6SM SCT040 BKN120 OVC200
     FM240900 34006KT P6SM SCT030 BKN200 WS010/30025KT=



000
FTUS46 KEKA 231159
TAFACV
TAF
KACV 231159Z 2312/2412 09005KT P6SM SCT015 BKN250
      TEMPO 2312/2316 BKN015
     FM231600 32008KT P6SM SCT200 BKN250
     FM232000 32010G20KT P6SM VCSH SCT040 BKN100 OVC200
     FM240200 33008KT 6SM -RA BR BKN015 OVC040
     FM240800 17006KT P6SM VCSH BKN015 BKN040
     FM241000 17006KT P6SM SCT020 SCT250=



000
FTUS46 KEKA 231159
TAFCEC
TAF
KCEC 231159Z 2312/2412 35010KT P6SM BKN250
     FM231600 34010G20KT P6SM BKN200
     FM232000 33010G22KT P6SM VCSH SCT040 BKN100 OVC200
     FM232300 31008KT 6SM -RA BR BKN015 OVC040
     FM240600 34006KT P6SM VCSH BKN020 BKN050
     FM240900 15006KT P6SM SCT020 SCT250=



000
FTUS46 KEKA 231159
TAFUKI
TAF
KUKI 231159Z 2312/2412 00000KT P6SM FEW010
     FM231600 36006KT P6SM SCT200
     FM232100 31012G20KT P6SM SCT150 BKN200
     FM240500 35010G18KT P6SM SCT040 BKN120 OVC200
     FM240900 34006KT P6SM SCT030 BKN200 WS010/30025KT=



    US Dept of Commerce
    National Oceanic and Atmospheric Administration
    National Weather Service
    1325 East West Highway
    Silver Spring, MD 20910
    Page Author: NWS Internet Services Team
Disclaimer
Information Quality
Credits
Glossary
Privacy Policy
Freedom of Information Act (FOIA)
About Us
Career Opportunities